sensor_id;sensor_type;location;lat;lon;timestamp;temperature;humidity
25556;DHT22;13447;57.174;-2.112;2023-08-24T00:01:12;15.50;99.90
25556;DHT22;13447;57.174;-2.112;2023-08-24T00:03:39;15.40;99.90
25556;DHT22;13447;57.174;-2.112;2023-08-24T00:06:06;15.40;99.90
25556;DHT22;13447;57.174;-2.112;2023-08-24T00:08:34;15.40;99.90
25556;DHT22;13447;57.174;-2.112;2023-08-24T00:11:00;15.40;99.90
25556;DHT22;13447;57.174;-2.112;2023-08-24T00:13:28;15.30;99.90
25556;DHT22;13447;57.174;-2.112;2023-08-24T00:15:55;15.30;99.90
25556;DHT22;13447;57.174;-2.112;2023-08-24T00:18:22;15.30;99.90
25556;DHT22;13447;57.174;-2.112;2023-08-24T00:20:49;15.30;99.90
25556;DHT22;13447;57.174;-2.112;2023-08-24T00:23:16;15.30;99.90
25556;DHT22;13447;57.174;-2.112;2023-08-24T00:25:43;15.30;99.90
25556;DHT22;13447;57.174;-2.112;2023-08-24T00:28:10;15.20;99.90
25556;DHT22;13447;57.174;-2.112;2023-08-24T00:30:37;15.20;1.00
25556;DHT22;13447;57.174;-2.112;2023-08-24T00:33:04;15.20;1.00
25556;DHT22;13447;57.174;-2.112;2023-08-24T00:35:31;15.20;1.00
25556;DHT22;13447;57.174;-2.112;2023-08-24T00:37:58;15.10;1.00
25556;DHT22;13447;57.174;-2.112;2023-08-24T00:40:25;15.10;1.00
25556;DHT22;13447;57.174;-2.112;2023-08-24T00:42:51;15.10;1.00
25556;DHT22;13447;57.174;-2.112;2023-08-24T00:45:19;15.00;1.00
25556;DHT22;13447;57.174;-2.112;2023-08-24T00:47:47;15.00;1.00
25556;DHT22;13447;57.174;-2.112;2023-08-24T00:50:16;15.00;1.00
25556;DHT22;13447;57.174;-2.112;2023-08-24T00:52:43;14.90;99.90
25556;DHT22;13447;57.174;-2.112;2023-08-24T00:55:10;14.90;1.00
25556;DHT22;13447;57.174;-2.112;2023-08-24T00:57:37;14.90;1.00
25556;DHT22;13447;57.174;-2.112;2023-08-24T01:00:05;14.80;1.00
25556;DHT22;13447;57.174;-2.112;2023-08-24T01:02:32;14.80;1.00
25556;DHT22;13447;57.174;-2.112;2023-08-24T01:04:59;14.80;1.00
25556;DHT22;13447;57.174;-2.112;2023-08-24T01:07:26;14.80;1.00
25556;DHT22;13447;57.174;-2.112;2023-08-24T01:09:53;14.80;1.00
25556;DHT22;13447;57.174;-2.112;2023-08-24T01:17:23;14.90;1.00
25556;DHT22;13447;57.174;-2.112;2023-08-24T01:19:54;14.90;1.00
25556;DHT22;13447;57.174;-2.112;2023-08-24T01:25:11;14.90;99.90
25556;DHT22;13447;57.174;-2.112;2023-08-24T01:27:38;14.90;99.90
25556;DHT22;13447;57.174;-2.112;2023-08-24T01:30:07;14.90;99.90
25556;DHT22;13447;57.174;-2.112;2023-08-24T01:32:34;14.90;99.90
25556;DHT22;13447;57.174;-2.112;2023-08-24T01:35:03;14.90;99.90
25556;DHT22;13447;57.174;-2.112;2023-08-24T01:37:30;14.90;99.90
25556;DHT22;13447;57.174;-2.112;2023-08-24T01:40:05;14.90;99.90
25556;DHT22;13447;57.174;-2.112;2023-08-24T01:42:43;14.90;99.90
25556;DHT22;13447;57.174;-2.112;2023-08-24T01:45:13;14.80;99.90
25556;DHT22;13447;57.174;-2.112;2023-08-24T01:47:40;14.80;99.90
25556;DHT22;13447;57.174;-2.112;2023-08-24T01:50:08;14.80;99.90
25556;DHT22;13447;57.174;-2.112;2023-08-24T01:52:35;14.80;99.90
25556;DHT22;13447;57.174;-2.112;2023-08-24T01:55:02;14.80;99.90
25556;DHT22;13447;57.174;-2.112;2023-08-24T01:57:29;14.70;99.90
25556;DHT22;13447;57.174;-2.112;2023-08-24T01:59:56;14.70;99.90
25556;DHT22;13447;57.174;-2.112;2023-08-24T02:02:23;14.80;99.90
25556;DHT22;13447;57.174;-2.112;2023-08-24T02:04:50;14.80;99.90
25556;DHT22;13447;57.174;-2.112;2023-08-24T02:07:17;14.70;99.90
25556;DHT22;13447;57.174;-2.112;2023-08-24T02:09:44;14.70;99.90
25556;DHT22;13447;57.174;-2.112;2023-08-24T02:12:10;14.70;99.90
25556;DHT22;13447;57.174;-2.112;2023-08-24T02:14:37;14.70;99.90
25556;DHT22;13447;57.174;-2.112;2023-08-24T02:17:04;14.70;99.90
25556;DHT22;13447;57.174;-2.112;2023-08-24T02:19:31;14.60;1.00
25556;DHT22;13447;57.174;-2.112;2023-08-24T02:21:58;14.60;1.00
25556;DHT22;13447;57.174;-2.112;2023-08-24T02:24:25;14.60;1.00
25556;DHT22;13447;57.174;-2.112;2023-08-24T02:26:51;14.60;1.00
25556;DHT22;13447;57.174;-2.112;2023-08-24T02:29:18;14.60;1.00
25556;DHT22;13447;57.174;-2.112;2023-08-24T02:31:45;14.60;1.00
25556;DHT22;13447;57.174;-2.112;2023-08-24T02:34:12;14.60;1.00
25556;DHT22;13447;57.174;-2.112;2023-08-24T02:36:39;14.60;1.00
25556;DHT22;13447;57.174;-2.112;2023-08-24T02:39:06;14.60;1.00
25556;DHT22;13447;57.174;-2.112;2023-08-24T02:41:34;14.60;1.00
25556;DHT22;13447;57.174;-2.112;2023-08-24T02:44:01;14.60;1.00
25556;DHT22;13447;57.174;-2.112;2023-08-24T02:46:28;14.60;1.00
25556;DHT22;13447;57.174;-2.112;2023-08-24T02:48:55;14.60;1.00
25556;DHT22;13447;57.174;-2.112;2023-08-24T02:51:22;14.60;1.00
25556;DHT22;13447;57.174;-2.112;2023-08-24T02:53:49;14.70;1.00
25556;DHT22;13447;57.174;-2.112;2023-08-24T02:56:16;14.70;1.00
25556;DHT22;13447;57.174;-2.112;2023-08-24T02:58:43;14.70;1.00
25556;DHT22;13447;57.174;-2.112;2023-08-24T03:01:10;14.80;99.90
25556;DHT22;13447;57.174;-2.112;2023-08-24T03:03:37;14.70;99.90
25556;DHT22;13447;57.174;-2.112;2023-08-24T03:06:04;14.80;99.90
25556;DHT22;13447;57.174;-2.112;2023-08-24T03:08:32;14.70;99.90
25556;DHT22;13447;57.174;-2.112;2023-08-24T03:11:00;14.70;1.00
25556;DHT22;13447;57.174;-2.112;2023-08-24T03:13:27;14.80;1.00
25556;DHT22;13447;57.174;-2.112;2023-08-24T03:15:54;14.80;1.00
25556;DHT22;13447;57.174;-2.112;2023-08-24T03:18:21;14.80;1.00
25556;DHT22;13447;57.174;-2.112;2023-08-24T03:20:48;14.80;1.00
25556;DHT22;13447;57.174;-2.112;2023-08-24T03:23:15;14.80;1.00
25556;DHT22;13447;57.174;-2.112;2023-08-24T03:25:42;14.80;1.00
25556;DHT22;13447;57.174;-2.112;2023-08-24T03:28:09;14.80;1.00
25556;DHT22;13447;57.174;-2.112;2023-08-24T03:30:36;14.80;1.00
25556;DHT22;13447;57.174;-2.112;2023-08-24T03:33:04;14.80;1.00
25556;DHT22;13447;57.174;-2.112;2023-08-24T03:35:31;14.80;1.00
25556;DHT22;13447;57.174;-2.112;2023-08-24T03:37:58;14.90;1.00
25556;DHT22;13447;57.174;-2.112;2023-08-24T03:40:25;14.90;1.00
25556;DHT22;13447;57.174;-2.112;2023-08-24T03:42:51;14.90;1.00
25556;DHT22;13447;57.174;-2.112;2023-08-24T03:45:20;14.80;1.00
25556;DHT22;13447;57.174;-2.112;2023-08-24T03:47:47;14.80;1.00
25556;DHT22;13447;57.174;-2.112;2023-08-24T03:50:14;14.70;1.00
25556;DHT22;13447;57.174;-2.112;2023-08-24T03:52:41;14.70;1.00
25556;DHT22;13447;57.174;-2.112;2023-08-24T03:55:08;14.70;1.00
25556;DHT22;13447;57.174;-2.112;2023-08-24T03:57:35;14.70;1.00
25556;DHT22;13447;57.174;-2.112;2023-08-24T04:00:02;14.60;1.00
25556;DHT22;13447;57.174;-2.112;2023-08-24T04:02:32;14.70;1.00
25556;DHT22;13447;57.174;-2.112;2023-08-24T04:04:59;14.60;1.00
25556;DHT22;13447;57.174;-2.112;2023-08-24T04:07:26;14.60;1.00
25556;DHT22;13447;57.174;-2.112;2023-08-24T04:09:53;14.60;1.00
25556;DHT22;13447;57.174;-2.112;2023-08-24T04:12:19;14.60;1.00
25556;DHT22;13447;57.174;-2.112;2023-08-24T04:14:46;14.50;1.00
25556;DHT22;13447;57.174;-2.112;2023-08-24T04:17:13;14.60;1.00
25556;DHT22;13447;57.174;-2.112;2023-08-24T04:19:40;14.60;1.00
25556;DHT22;13447;57.174;-2.112;2023-08-24T04:22:07;14.50;1.00
25556;DHT22;13447;57.174;-2.112;2023-08-24T04:24:34;14.50;1.00
25556;DHT22;13447;57.174;-2.112;2023-08-24T04:27:00;14.50;1.00
25556;DHT22;13447;57.174;-2.112;2023-08-24T04:29:28;14.50;1.00
25556;DHT22;13447;57.174;-2.112;2023-08-24T04:31:54;14.50;1.00
25556;DHT22;13447;57.174;-2.112;2023-08-24T04:34:21;14.50;1.00
25556;DHT22;13447;57.174;-2.112;2023-08-24T04:36:48;14.50;1.00
25556;DHT22;13447;57.174;-2.112;2023-08-24T04:39:15;14.50;1.00
25556;DHT22;13447;57.174;-2.112;2023-08-24T04:41:42;14.50;1.00
25556;DHT22;13447;57.174;-2.112;2023-08-24T04:44:09;14.50;1.00
25556;DHT22;13447;57.174;-2.112;2023-08-24T04:46:35;14.40;1.00
25556;DHT22;13447;57.174;-2.112;2023-08-24T04:49:03;14.50;1.00
25556;DHT22;13447;57.174;-2.112;2023-08-24T04:51:29;14.40;1.00
25556;DHT22;13447;57.174;-2.112;2023-08-24T04:53:56;14.40;1.00
25556;DHT22;13447;57.174;-2.112;2023-08-24T04:56:23;14.40;1.00
25556;DHT22;13447;57.174;-2.112;2023-08-24T04:58:56;14.40;1.00
25556;DHT22;13447;57.174;-2.112;2023-08-24T05:01:24;14.40;1.00
25556;DHT22;13447;57.174;-2.112;2023-08-24T05:03:53;14.40;1.00
25556;DHT22;13447;57.174;-2.112;2023-08-24T05:06:21;14.40;1.00
25556;DHT22;13447;57.174;-2.112;2023-08-24T05:08:48;14.30;1.00
25556;DHT22;13447;57.174;-2.112;2023-08-24T05:11:18;14.30;1.00
25556;DHT22;13447;57.174;-2.112;2023-08-24T05:13:45;14.30;1.00
25556;DHT22;13447;57.174;-2.112;2023-08-24T05:16:13;14.30;1.00
25556;DHT22;13447;57.174;-2.112;2023-08-24T05:18:40;14.30;1.00
25556;DHT22;13447;57.174;-2.112;2023-08-24T05:21:07;14.30;1.00
25556;DHT22;13447;57.174;-2.112;2023-08-24T05:23:34;14.30;1.00
25556;DHT22;13447;57.174;-2.112;2023-08-24T05:26:01;14.30;1.00
25556;DHT22;13447;57.174;-2.112;2023-08-24T05:28:29;14.30;1.00
25556;DHT22;13447;57.174;-2.112;2023-08-24T05:30:56;14.30;1.00
25556;DHT22;13447;57.174;-2.112;2023-08-24T05:33:23;14.30;1.00
25556;DHT22;13447;57.174;-2.112;2023-08-24T05:35:50;14.30;1.00
25556;DHT22;13447;57.174;-2.112;2023-08-24T05:38:17;14.30;1.00
25556;DHT22;13447;57.174;-2.112;2023-08-24T05:40:48;14.40;1.00
25556;DHT22;13447;57.174;-2.112;2023-08-24T05:43:15;14.40;1.00
25556;DHT22;13447;57.174;-2.112;2023-08-24T05:45:42;14.40;1.00
25556;DHT22;13447;57.174;-2.112;2023-08-24T05:48:11;14.40;1.00
25556;DHT22;13447;57.174;-2.112;2023-08-24T05:50:42;14.40;1.00
25556;DHT22;13447;57.174;-2.112;2023-08-24T05:53:09;14.40;1.00
25556;DHT22;13447;57.174;-2.112;2023-08-24T05:55:36;14.40;1.00
25556;DHT22;13447;57.174;-2.112;2023-08-24T05:58:03;14.40;1.00
25556;DHT22;13447;57.174;-2.112;2023-08-24T06:00:30;14.40;1.00
25556;DHT22;13447;57.174;-2.112;2023-08-24T06:02:57;14.30;1.00
25556;DHT22;13447;57.174;-2.112;2023-08-24T06:05:24;14.30;1.00
25556;DHT22;13447;57.174;-2.112;2023-08-24T06:07:50;14.30;1.00
25556;DHT22;13447;57.174;-2.112;2023-08-24T06:10:18;14.30;1.00
25556;DHT22;13447;57.174;-2.112;2023-08-24T06:12:45;14.30;1.00
25556;DHT22;13447;57.174;-2.112;2023-08-24T06:15:12;14.20;1.00
25556;DHT22;13447;57.174;-2.112;2023-08-24T06:17:40;14.20;1.00
25556;DHT22;13447;57.174;-2.112;2023-08-24T06:20:07;14.20;1.00
25556;DHT22;13447;57.174;-2.112;2023-08-24T06:22:37;14.30;1.00
25556;DHT22;13447;57.174;-2.112;2023-08-24T06:25:04;14.20;1.00
25556;DHT22;13447;57.174;-2.112;2023-08-24T06:27:31;14.30;1.00
25556;DHT22;13447;57.174;-2.112;2023-08-24T06:29:58;14.30;1.00
25556;DHT22;13447;57.174;-2.112;2023-08-24T06:32:25;14.30;1.00
25556;DHT22;13447;57.174;-2.112;2023-08-24T06:34:52;14.30;1.00
25556;DHT22;13447;57.174;-2.112;2023-08-24T06:37:19;14.30;1.00
25556;DHT22;13447;57.174;-2.112;2023-08-24T06:39:45;14.40;1.00
25556;DHT22;13447;57.174;-2.112;2023-08-24T06:42:12;14.30;1.00
25556;DHT22;13447;57.174;-2.112;2023-08-24T06:44:39;14.30;1.00
25556;DHT22;13447;57.174;-2.112;2023-08-24T06:47:06;14.30;1.00
25556;DHT22;13447;57.174;-2.112;2023-08-24T06:49:33;14.30;1.00
25556;DHT22;13447;57.174;-2.112;2023-08-24T06:52:00;14.30;1.00
25556;DHT22;13447;57.174;-2.112;2023-08-24T06:54:27;14.30;1.00
25556;DHT22;13447;57.174;-2.112;2023-08-24T06:56:54;14.40;1.00
25556;DHT22;13447;57.174;-2.112;2023-08-24T06:59:21;14.40;1.00
25556;DHT22;13447;57.174;-2.112;2023-08-24T07:01:48;14.40;1.00
25556;DHT22;13447;57.174;-2.112;2023-08-24T07:04:15;14.40;1.00
25556;DHT22;13447;57.174;-2.112;2023-08-24T07:06:42;14.40;1.00
25556;DHT22;13447;57.174;-2.112;2023-08-24T07:09:10;14.50;1.00
25556;DHT22;13447;57.174;-2.112;2023-08-24T07:11:37;14.50;1.00
25556;DHT22;13447;57.174;-2.112;2023-08-24T07:14:04;14.50;1.00
25556;DHT22;13447;57.174;-2.112;2023-08-24T07:16:31;14.50;1.00
25556;DHT22;13447;57.174;-2.112;2023-08-24T07:18:58;14.60;1.00
25556;DHT22;13447;57.174;-2.112;2023-08-24T07:21:25;14.50;1.00
25556;DHT22;13447;57.174;-2.112;2023-08-24T07:23:52;14.50;1.00
25556;DHT22;13447;57.174;-2.112;2023-08-24T07:26:19;14.60;1.00
25556;DHT22;13447;57.174;-2.112;2023-08-24T07:28:46;14.60;1.00
25556;DHT22;13447;57.174;-2.112;2023-08-24T07:31:12;14.70;1.00
25556;DHT22;13447;57.174;-2.112;2023-08-24T07:33:40;14.60;1.00
25556;DHT22;13447;57.174;-2.112;2023-08-24T07:36:07;14.70;1.00
25556;DHT22;13447;57.174;-2.112;2023-08-24T07:38:34;14.70;1.00
25556;DHT22;13447;57.174;-2.112;2023-08-24T07:41:01;14.80;1.00
25556;DHT22;13447;57.174;-2.112;2023-08-24T07:43:28;14.90;1.00
25556;DHT22;13447;57.174;-2.112;2023-08-24T07:45:55;14.80;1.00
25556;DHT22;13447;57.174;-2.112;2023-08-24T07:48:22;15.00;1.00
25556;DHT22;13447;57.174;-2.112;2023-08-24T07:50:48;15.00;1.00
25556;DHT22;13447;57.174;-2.112;2023-08-24T07:53:15;15.10;1.00
25556;DHT22;13447;57.174;-2.112;2023-08-24T07:55:42;15.20;1.00
25556;DHT22;13447;57.174;-2.112;2023-08-24T07:58:09;15.20;1.00
25556;DHT22;13447;57.174;-2.112;2023-08-24T08:00:36;15.30;1.00
25556;DHT22;13447;57.174;-2.112;2023-08-24T08:03:04;15.30;1.00
25556;DHT22;13447;57.174;-2.112;2023-08-24T08:05:31;15.40;1.00
25556;DHT22;13447;57.174;-2.112;2023-08-24T08:07:58;15.50;1.00
25556;DHT22;13447;57.174;-2.112;2023-08-24T08:10:25;15.60;1.00
25556;DHT22;13447;57.174;-2.112;2023-08-24T08:12:52;15.60;1.00
25556;DHT22;13447;57.174;-2.112;2023-08-24T08:15:19;15.70;1.00
25556;DHT22;13447;57.174;-2.112;2023-08-24T08:17:45;15.70;1.00
25556;DHT22;13447;57.174;-2.112;2023-08-24T08:20:13;15.70;1.00
25556;DHT22;13447;57.174;-2.112;2023-08-24T08:22:40;15.80;1.00
25556;DHT22;13447;57.174;-2.112;2023-08-24T08:25:07;15.80;1.00
25556;DHT22;13447;57.174;-2.112;2023-08-24T08:27:34;15.90;1.00
25556;DHT22;13447;57.174;-2.112;2023-08-24T08:30:01;15.90;1.00
25556;DHT22;13447;57.174;-2.112;2023-08-24T08:32:31;16.00;1.00
25556;DHT22;13447;57.174;-2.112;2023-08-24T08:34:58;16.20;1.00
25556;DHT22;13447;57.174;-2.112;2023-08-24T08:37:27;16.30;1.00
25556;DHT22;13447;57.174;-2.112;2023-08-24T08:39:54;16.30;1.00
25556;DHT22;13447;57.174;-2.112;2023-08-24T08:42:21;16.20;1.00
25556;DHT22;13447;57.174;-2.112;2023-08-24T08:44:48;16.20;1.00
25556;DHT22;13447;57.174;-2.112;2023-08-24T08:47:19;16.20;1.00
25556;DHT22;13447;57.174;-2.112;2023-08-24T08:49:48;16.50;1.00
25556;DHT22;13447;57.174;-2.112;2023-08-24T08:52:15;16.80;1.00
25556;DHT22;13447;57.174;-2.112;2023-08-24T08:54:42;16.90;1.00
25556;DHT22;13447;57.174;-2.112;2023-08-24T08:57:09;16.80;1.00
25556;DHT22;13447;57.174;-2.112;2023-08-24T08:59:36;16.80;1.00
25556;DHT22;13447;57.174;-2.112;2023-08-24T09:02:03;17.30;1.00
25556;DHT22;13447;57.174;-2.112;2023-08-24T09:04:31;17.80;1.00
25556;DHT22;13447;57.174;-2.112;2023-08-24T09:06:58;18.30;1.00
25556;DHT22;13447;57.174;-2.112;2023-08-24T09:09:27;18.80;1.00
25556;DHT22;13447;57.174;-2.112;2023-08-24T09:14:24;19.00;1.00
25556;DHT22;13447;57.174;-2.112;2023-08-24T09:16:51;19.10;1.00
25556;DHT22;13447;57.174;-2.112;2023-08-24T09:19:18;19.30;99.90
25556;DHT22;13447;57.174;-2.112;2023-08-24T09:21:45;19.80;99.90
25556;DHT22;13447;57.174;-2.112;2023-08-24T09:24:12;19.50;99.90
25556;DHT22;13447;57.174;-2.112;2023-08-24T09:26:39;19.10;99.90
25556;DHT22;13447;57.174;-2.112;2023-08-24T09:29:14;19.40;99.90
25556;DHT22;13447;57.174;-2.112;2023-08-24T09:31:41;19.80;99.90
25556;DHT22;13447;57.174;-2.112;2023-08-24T09:34:12;19.80;38.90
25556;DHT22;13447;57.174;-2.112;2023-08-24T09:36:39;19.60;1.00
25556;DHT22;13447;57.174;-2.112;2023-08-24T09:39:06;19.60;1.00
25556;DHT22;13447;57.174;-2.112;2023-08-24T09:41:39;20.10;9.20
25556;DHT22;13447;57.174;-2.112;2023-08-24T09:44:06;20.50;1.00
25556;DHT22;13447;57.174;-2.112;2023-08-24T09:46:34;20.70;1.00
25556;DHT22;13447;57.174;-2.112;2023-08-24T09:49:03;20.90;1.00
25556;DHT22;13447;57.174;-2.112;2023-08-24T09:51:31;21.30;1.00
25556;DHT22;13447;57.174;-2.112;2023-08-24T09:53:58;21.30;1.00
25556;DHT22;13447;57.174;-2.112;2023-08-24T09:56:27;20.90;1.00
25556;DHT22;13447;57.174;-2.112;2023-08-24T09:58:56;20.80;1.00
25556;DHT22;13447;57.174;-2.112;2023-08-24T10:01:23;20.90;1.00
25556;DHT22;13447;57.174;-2.112;2023-08-24T10:03:53;21.00;1.00
25556;DHT22;13447;57.174;-2.112;2023-08-24T10:06:23;21.20;1.00
25556;DHT22;13447;57.174;-2.112;2023-08-24T10:08:52;21.30;1.00
25556;DHT22;13447;57.174;-2.112;2023-08-24T10:11:23;21.20;1.00
25556;DHT22;13447;57.174;-2.112;2023-08-24T10:16:19;21.50;1.00
25556;DHT22;13447;57.174;-2.112;2023-08-24T10:18:46;21.70;1.00
25556;DHT22;13447;57.174;-2.112;2023-08-24T10:21:13;21.90;1.00
25556;DHT22;13447;57.174;-2.112;2023-08-24T10:23:41;22.00;1.00
25556;DHT22;13447;57.174;-2.112;2023-08-24T10:26:08;22.20;1.00
25556;DHT22;13447;57.174;-2.112;2023-08-24T10:28:37;22.40;1.00
25556;DHT22;13447;57.174;-2.112;2023-08-24T10:31:05;22.60;1.00
25556;DHT22;13447;57.174;-2.112;2023-08-24T10:33:33;22.70;1.00
25556;DHT22;13447;57.174;-2.112;2023-08-24T10:36:03;22.80;1.00
25556;DHT22;13447;57.174;-2.112;2023-08-24T10:38:30;22.80;1.00
25556;DHT22;13447;57.174;-2.112;2023-08-24T10:41:03;22.90;1.00
25556;DHT22;13447;57.174;-2.112;2023-08-24T10:43:37;22.80;1.00
25556;DHT22;13447;57.174;-2.112;2023-08-24T10:46:04;23.00;1.00
25556;DHT22;13447;57.174;-2.112;2023-08-24T10:48:56;23.00;99.90
25556;DHT22;13447;57.174;-2.112;2023-08-24T10:51:18;23.10;99.90
25556;DHT22;13447;57.174;-2.112;2023-08-24T10:53:47;23.40;99.90
25556;DHT22;13447;57.174;-2.112;2023-08-24T10:56:17;22.70;99.90
25556;DHT22;13447;57.174;-2.112;2023-08-24T10:58:45;22.70;99.90
25556;DHT22;13447;57.174;-2.112;2023-08-24T11:01:15;22.90;99.90
25556;DHT22;13447;57.174;-2.112;2023-08-24T11:03:51;23.20;99.90
25556;DHT22;13447;57.174;-2.112;2023-08-24T11:06:18;23.40;99.90
25556;DHT22;13447;57.174;-2.112;2023-08-24T11:08:46;23.70;99.90
25556;DHT22;13447;57.174;-2.112;2023-08-24T11:11:20;23.90;99.90
25556;DHT22;13447;57.174;-2.112;2023-08-24T11:16:42;24.20;99.90
25556;DHT22;13447;57.174;-2.112;2023-08-24T11:19:13;24.20;99.90
25556;DHT22;13447;57.174;-2.112;2023-08-24T11:21:41;24.10;99.90
25556;DHT22;13447;57.174;-2.112;2023-08-24T11:24:14;23.50;99.90
25556;DHT22;13447;57.174;-2.112;2023-08-24T11:26:47;23.00;99.90
25556;DHT22;13447;57.174;-2.112;2023-08-24T11:29:17;22.90;99.90
25556;DHT22;13447;57.174;-2.112;2023-08-24T11:31:44;22.60;99.90
25556;DHT22;13447;57.174;-2.112;2023-08-24T11:34:14;22.60;99.90
25556;DHT22;13447;57.174;-2.112;2023-08-24T11:36:42;22.90;99.90
25556;DHT22;13447;57.174;-2.112;2023-08-24T11:39:14;23.00;99.90
25556;DHT22;13447;57.174;-2.112;2023-08-24T11:41:41;23.30;99.90
25556;DHT22;13447;57.174;-2.112;2023-08-24T11:44:08;23.40;99.90
25556;DHT22;13447;57.174;-2.112;2023-08-24T11:46:55;23.80;99.90
25556;DHT22;13447;57.174;-2.112;2023-08-24T11:49:22;23.30;99.90
25556;DHT22;13447;57.174;-2.112;2023-08-24T11:51:50;23.60;99.90
25556;DHT22;13447;57.174;-2.112;2023-08-24T11:54:18;23.70;99.90
25556;DHT22;13447;57.174;-2.112;2023-08-24T11:56:45;23.90;99.90
25556;DHT22;13447;57.174;-2.112;2023-08-24T11:59:16;23.60;99.90
25556;DHT22;13447;57.174;-2.112;2023-08-24T12:01:43;23.30;99.90
25556;DHT22;13447;57.174;-2.112;2023-08-24T12:04:10;22.80;99.90
25556;DHT22;13447;57.174;-2.112;2023-08-24T12:06:36;23.00;99.90
25556;DHT22;13447;57.174;-2.112;2023-08-24T12:09:06;23.40;99.90
25556;DHT22;13447;57.174;-2.112;2023-08-24T12:11:36;23.60;99.90
25556;DHT22;13447;57.174;-2.112;2023-08-24T12:14:03;23.20;99.90
25556;DHT22;13447;57.174;-2.112;2023-08-24T12:16:31;22.30;99.90
25556;DHT22;13447;57.174;-2.112;2023-08-24T12:18:59;21.50;99.90
25556;DHT22;13447;57.174;-2.112;2023-08-24T12:21:26;21.00;99.90
25556;DHT22;13447;57.174;-2.112;2023-08-24T12:24:01;21.10;99.90
25556;DHT22;13447;57.174;-2.112;2023-08-24T12:26:33;20.30;99.90
25556;DHT22;13447;57.174;-2.112;2023-08-24T12:29:05;19.70;99.90
25556;DHT22;13447;57.174;-2.112;2023-08-24T12:31:32;19.80;99.90
25556;DHT22;13447;57.174;-2.112;2023-08-24T12:34:00;19.60;99.90
25556;DHT22;13447;57.174;-2.112;2023-08-24T12:36:27;19.90;99.90
25556;DHT22;13447;57.174;-2.112;2023-08-24T12:38:54;20.60;99.90
25556;DHT22;13447;57.174;-2.112;2023-08-24T12:41:21;21.40;99.90
25556;DHT22;13447;57.174;-2.112;2023-08-24T12:43:48;22.00;99.90
25556;DHT22;13447;57.174;-2.112;2023-08-24T12:46:15;22.30;99.90
25556;DHT22;13447;57.174;-2.112;2023-08-24T12:48:42;22.10;99.90
25556;DHT22;13447;57.174;-2.112;2023-08-24T12:51:09;22.20;99.90
25556;DHT22;13447;57.174;-2.112;2023-08-24T12:53:36;22.40;99.90
25556;DHT22;13447;57.174;-2.112;2023-08-24T12:56:03;22.90;99.90
25556;DHT22;13447;57.174;-2.112;2023-08-24T12:58:30;23.00;99.90
25556;DHT22;13447;57.174;-2.112;2023-08-24T13:00:57;23.00;99.90
25556;DHT22;13447;57.174;-2.112;2023-08-24T13:03:24;23.30;99.90
25556;DHT22;13447;57.174;-2.112;2023-08-24T13:05:51;23.50;99.90
25556;DHT22;13447;57.174;-2.112;2023-08-24T13:08:18;23.40;99.90
25556;DHT22;13447;57.174;-2.112;2023-08-24T13:10:45;23.50;99.90
25556;DHT22;13447;57.174;-2.112;2023-08-24T13:13:11;23.30;99.90
25556;DHT22;13447;57.174;-2.112;2023-08-24T13:15:39;22.90;99.90
25556;DHT22;13447;57.174;-2.112;2023-08-24T13:18:06;23.30;99.90
25556;DHT22;13447;57.174;-2.112;2023-08-24T13:20:32;23.80;99.90
25556;DHT22;13447;57.174;-2.112;2023-08-24T13:22:59;23.70;99.90
25556;DHT22;13447;57.174;-2.112;2023-08-24T13:25:26;23.60;99.90
25556;DHT22;13447;57.174;-2.112;2023-08-24T13:27:53;23.50;99.90
25556;DHT22;13447;57.174;-2.112;2023-08-24T13:30:20;22.10;99.90
25556;DHT22;13447;57.174;-2.112;2023-08-24T13:32:47;21.30;99.90
25556;DHT22;13447;57.174;-2.112;2023-08-24T13:35:13;21.00;99.90
25556;DHT22;13447;57.174;-2.112;2023-08-24T13:37:40;20.90;99.90
25556;DHT22;13447;57.174;-2.112;2023-08-24T13:40:07;20.80;99.90
25556;DHT22;13447;57.174;-2.112;2023-08-24T13:42:34;20.60;99.90
25556;DHT22;13447;57.174;-2.112;2023-08-24T13:45:01;20.10;99.90
25556;DHT22;13447;57.174;-2.112;2023-08-24T13:47:29;19.90;99.90
25556;DHT22;13447;57.174;-2.112;2023-08-24T13:49:56;20.00;99.90
25556;DHT22;13447;57.174;-2.112;2023-08-24T13:52:23;19.90;99.90
25556;DHT22;13447;57.174;-2.112;2023-08-24T13:54:50;19.70;99.90
25556;DHT22;13447;57.174;-2.112;2023-08-24T13:57:36;19.60;99.90
25556;DHT22;13447;57.174;-2.112;2023-08-24T14:00:03;19.50;99.90
25556;DHT22;13447;57.174;-2.112;2023-08-24T14:02:31;19.00;99.90
25556;DHT22;13447;57.174;-2.112;2023-08-24T14:04:58;18.90;99.90
25556;DHT22;13447;57.174;-2.112;2023-08-24T14:07:25;18.70;99.90
25556;DHT22;13447;57.174;-2.112;2023-08-24T14:09:51;18.70;99.90
25556;DHT22;13447;57.174;-2.112;2023-08-24T14:12:31;18.90;99.90
25556;DHT22;13447;57.174;-2.112;2023-08-24T14:14:58;18.90;99.90
25556;DHT22;13447;57.174;-2.112;2023-08-24T14:17:25;18.70;99.90
25556;DHT22;13447;57.174;-2.112;2023-08-24T14:19:52;18.80;99.90
25556;DHT22;13447;57.174;-2.112;2023-08-24T14:22:19;18.90;99.90
25556;DHT22;13447;57.174;-2.112;2023-08-24T14:24:46;18.90;99.90
25556;DHT22;13447;57.174;-2.112;2023-08-24T14:27:12;18.90;99.90
25556;DHT22;13447;57.174;-2.112;2023-08-24T14:29:39;18.80;99.90
25556;DHT22;13447;57.174;-2.112;2023-08-24T14:32:06;18.80;99.90
25556;DHT22;13447;57.174;-2.112;2023-08-24T14:34:33;18.80;99.90
25556;DHT22;13447;57.174;-2.112;2023-08-24T14:37:00;18.70;99.90
25556;DHT22;13447;57.174;-2.112;2023-08-24T14:39:26;18.70;99.90
25556;DHT22;13447;57.174;-2.112;2023-08-24T14:41:53;18.80;99.90
25556;DHT22;13447;57.174;-2.112;2023-08-24T14:44:20;18.90;99.90
25556;DHT22;13447;57.174;-2.112;2023-08-24T14:46:47;19.00;99.90
25556;DHT22;13447;57.174;-2.112;2023-08-24T14:49:14;19.10;99.90
25556;DHT22;13447;57.174;-2.112;2023-08-24T14:51:45;19.30;99.90
25556;DHT22;13447;57.174;-2.112;2023-08-24T14:54:13;19.40;99.90
25556;DHT22;13447;57.174;-2.112;2023-08-24T14:56:41;19.20;99.90
25556;DHT22;13447;57.174;-2.112;2023-08-24T14:59:08;19.10;99.90
25556;DHT22;13447;57.174;-2.112;2023-08-24T15:01:35;19.10;99.90
25556;DHT22;13447;57.174;-2.112;2023-08-24T15:04:02;19.00;99.90
25556;DHT22;13447;57.174;-2.112;2023-08-24T15:06:29;18.90;99.90
25556;DHT22;13447;57.174;-2.112;2023-08-24T15:08:56;19.00;99.90
25556;DHT22;13447;57.174;-2.112;2023-08-24T15:11:24;19.10;99.90
25556;DHT22;13447;57.174;-2.112;2023-08-24T15:13:52;19.10;99.90
25556;DHT22;13447;57.174;-2.112;2023-08-24T15:16:19;19.10;99.90
25556;DHT22;13447;57.174;-2.112;2023-08-24T15:18:46;19.10;99.90
25556;DHT22;13447;57.174;-2.112;2023-08-24T15:21:13;19.10;99.90
25556;DHT22;13447;57.174;-2.112;2023-08-24T15:23:41;19.10;99.90
25556;DHT22;13447;57.174;-2.112;2023-08-24T15:26:08;19.00;99.90
25556;DHT22;13447;57.174;-2.112;2023-08-24T15:29:07;19.00;99.90
25556;DHT22;13447;57.174;-2.112;2023-08-24T15:31:22;18.90;99.90
25556;DHT22;13447;57.174;-2.112;2023-08-24T15:33:49;18.90;99.90
25556;DHT22;13447;57.174;-2.112;2023-08-24T15:36:16;18.90;99.90
25556;DHT22;13447;57.174;-2.112;2023-08-24T15:38:43;18.90;99.90
25556;DHT22;13447;57.174;-2.112;2023-08-24T15:41:10;18.90;1.00
25556;DHT22;13447;57.174;-2.112;2023-08-24T15:43:37;18.80;1.00